sensor_id;sensor_type;location;lat;lon;timestamp;pressure;altitude;pressure_sealevel;temperature
65290;BMP180;51893;59.754;10.110;2022-09-09T00:00:56;102232.40;;;14.40
65290;BMP180;51893;59.754;10.110;2022-09-09T00:03:44;102225.60;;;14.40
65290;BMP180;51893;59.754;10.110;2022-09-09T00:06:36;102228.00;;;14.40
65290;BMP180;51893;59.754;10.110;2022-09-09T00:09:18;102224.60;;;14.40
65290;BMP180;51893;59.754;10.110;2022-09-09T00:20:06;102222.80;;;14.40
65290;BMP180;51893;59.754;10.110;2022-09-09T00:22:53;102221.20;;;14.40
65290;BMP180;51893;59.754;10.110;2022-09-09T00:31:32;102210.40;;;14.40
65290;BMP180;51893;59.754;10.110;2022-09-09T00:34:18;102210.60;;;14.40
65290;BMP180;51893;59.754;10.110;2022-09-09T00:36:50;102205.80;;;14.38
65290;BMP180;51893;59.754;10.110;2022-09-09T00:39:45;102202.80;;;14.32
65290;BMP180;51893;59.754;10.110;2022-09-09T00:42:16;102203.60;;;14.34
65290;BMP180;51893;59.754;10.110;2022-09-09T00:45:01;102199.80;;;14.32
65290;BMP180;51893;59.754;10.110;2022-09-09T00:47:49;102202.20;;;14.30
65290;BMP180;51893;59.754;10.110;2022-09-09T00:50:48;102203.60;;;14.30
65290;BMP180;51893;59.754;10.110;2022-09-09T00:57:03;102195.00;;;14.30
65290;BMP180;51893;59.754;10.110;2022-09-09T01:03:17;102194.60;;;14.30
65290;BMP180;51893;59.754;10.110;2022-09-09T01:09:07;102189.40;;;14.30
65290;BMP180;51893;59.754;10.110;2022-09-09T01:14:47;102189.40;;;14.30
65290;BMP180;51893;59.754;10.110;2022-09-09T01:17:27;102185.80;;;14.30
65290;BMP180;51893;59.754;10.110;2022-09-09T01:28:17;102171.60;;;14.32
65290;BMP180;51893;59.754;10.110;2022-09-09T01:30:49;102171.80;;;14.30
65290;BMP180;51893;59.754;10.110;2022-09-09T01:33:18;102169.20;;;14.30
65290;BMP180;51893;59.754;10.110;2022-09-09T01:35:50;102171.00;;;14.30
65290;BMP180;51893;59.754;10.110;2022-09-09T01:38:23;102165.40;;;14.30
65290;BMP180;51893;59.754;10.110;2022-09-09T01:40:53;102163.60;;;14.30
65290;BMP180;51893;59.754;10.110;2022-09-09T01:43:22;102165.20;;;14.30
65290;BMP180;51893;59.754;10.110;2022-09-09T01:45:55;102169.20;;;14.28
65290;BMP180;51893;59.754;10.110;2022-09-09T01:48:25;102169.00;;;14.20
65290;BMP180;51893;59.754;10.110;2022-09-09T01:50:52;102167.20;;;14.20
65290;BMP180;51893;59.754;10.110;2022-09-09T01:53:22;102165.20;;;14.20
65290;BMP180;51893;59.754;10.110;2022-09-09T01:56:15;102161.00;;;14.20
65290;BMP180;51893;59.754;10.110;2022-09-09T01:58:58;102156.00;;;14.12
65290;BMP180;51893;59.754;10.110;2022-09-09T02:02:07;102156.20;;;14.10
65290;BMP180;51893;59.754;10.110;2022-09-09T02:04:48;102153.80;;;14.10
65290;BMP180;51893;59.754;10.110;2022-09-09T02:13:22;102147.20;;;14.20
65290;BMP180;51893;59.754;10.110;2022-09-09T02:18:51;102145.80;;;14.10
65290;BMP180;51893;59.754;10.110;2022-09-09T02:21:24;102145.80;;;14.10
65290;BMP180;51893;59.754;10.110;2022-09-09T02:23:59;102143.20;;;14.10
65290;BMP180;51893;59.754;10.110;2022-09-09T02:26:28;102137.20;;;14.10
65290;BMP180;51893;59.754;10.110;2022-09-09T02:28:59;102141.20;;;14.10
65290;BMP180;51893;59.754;10.110;2022-09-09T02:31:29;102139.00;;;14.10
65290;BMP180;51893;59.754;10.110;2022-09-09T02:34:01;102138.00;;;14.10
65290;BMP180;51893;59.754;10.110;2022-09-09T02:36:34;102133.40;;;14.00
65290;BMP180;51893;59.754;10.110;2022-09-09T02:39:05;102135.00;;;14.00
65290;BMP180;51893;59.754;10.110;2022-09-09T02:41:39;102130.80;;;14.00
65290;BMP180;51893;59.754;10.110;2022-09-09T02:44:16;102132.20;;;14.00
65290;BMP180;51893;59.754;10.110;2022-09-09T02:50:02;102127.80;;;14.00
65290;BMP180;51893;59.754;10.110;2022-09-09T02:55:50;102129.40;;;14.00
65290;BMP180;51893;59.754;10.110;2022-09-09T02:58:20;102122.40;;;14.00
65290;BMP180;51893;59.754;10.110;2022-09-09T03:00:50;102119.20;;;14.00
65290;BMP180;51893;59.754;10.110;2022-09-09T03:03:20;102122.60;;;14.00
65290;BMP180;51893;59.754;10.110;2022-09-09T03:05:49;102118.60;;;13.92
65290;BMP180;51893;59.754;10.110;2022-09-09T03:08:17;102116.60;;;13.90
65290;BMP180;51893;59.754;10.110;2022-09-09T03:10:45;102116.60;;;13.90
65290;BMP180;51893;59.754;10.110;2022-09-09T03:13:13;102116.60;;;13.90
65290;BMP180;51893;59.754;10.110;2022-09-09T03:15:42;102116.40;;;13.90
65290;BMP180;51893;59.754;10.110;2022-09-09T03:18:10;102117.00;;;13.90
65290;BMP180;51893;59.754;10.110;2022-09-09T03:20:38;102119.60;;;13.90
65290;BMP180;51893;59.754;10.110;2022-09-09T03:23:06;102116.60;;;13.90
65290;BMP180;51893;59.754;10.110;2022-09-09T03:25:37;102110.20;;;13.90
65290;BMP180;51893;59.754;10.110;2022-09-09T03:28:05;102109.20;;;13.90
65290;BMP180;51893;59.754;10.110;2022-09-09T03:30:33;102112.80;;;13.90
65290;BMP180;51893;59.754;10.110;2022-09-09T03:33:01;102113.20;;;13.90
65290;BMP180;51893;59.754;10.110;2022-09-09T03:35:29;102114.40;;;13.90
65290;BMP180;51893;59.754;10.110;2022-09-09T03:37:57;102110.20;;;13.90
65290;BMP180;51893;59.754;10.110;2022-09-09T03:40:24;102107.20;;;13.90
65290;BMP180;51893;59.754;10.110;2022-09-09T03:42:52;102103.60;;;13.90
65290;BMP180;51893;59.754;10.110;2022-09-09T03:45:20;102101.60;;;13.80
65290;BMP180;51893;59.754;10.110;2022-09-09T03:47:49;102095.60;;;13.80
65290;BMP180;51893;59.754;10.110;2022-09-09T03:50:17;102091.60;;;13.80
65290;BMP180;51893;59.754;10.110;2022-09-09T03:52:45;102091.40;;;13.78
65290;BMP180;51893;59.754;10.110;2022-09-09T03:55:14;102091.60;;;13.70
65290;BMP180;51893;59.754;10.110;2022-09-09T03:57:42;102090.60;;;13.70
65290;BMP180;51893;59.754;10.110;2022-09-09T04:00:11;102092.00;;;13.70
65290;BMP180;51893;59.754;10.110;2022-09-09T04:02:39;102093.00;;;13.70
65290;BMP180;51893;59.754;10.110;2022-09-09T04:05:08;102088.40;;;13.70
65290;BMP180;51893;59.754;10.110;2022-09-09T04:07:36;102088.40;;;13.70
65290;BMP180;51893;59.754;10.110;2022-09-09T04:10:04;102089.60;;;13.70
65290;BMP180;51893;59.754;10.110;2022-09-09T04:12:32;102090.00;;;13.70
65290;BMP180;51893;59.754;10.110;2022-09-09T04:15:02;102091.80;;;13.70
65290;BMP180;51893;59.754;10.110;2022-09-09T04:17:30;102094.80;;;13.60
65290;BMP180;51893;59.754;10.110;2022-09-09T04:19:58;102085.60;;;13.60
65290;BMP180;51893;59.754;10.110;2022-09-09T04:22:26;102086.00;;;13.60
65290;BMP180;51893;59.754;10.110;2022-09-09T04:24:53;102090.20;;;13.54
65290;BMP180;51893;59.754;10.110;2022-09-09T04:27:21;102088.20;;;13.50
65290;BMP180;51893;59.754;10.110;2022-09-09T04:29:49;102085.80;;;13.50
65290;BMP180;51893;59.754;10.110;2022-09-09T04:32:17;102082.40;;;13.50
65290;BMP180;51893;59.754;10.110;2022-09-09T04:34:45;102082.20;;;13.50
65290;BMP180;51893;59.754;10.110;2022-09-09T04:37:13;102080.80;;;13.50
65290;BMP180;51893;59.754;10.110;2022-09-09T04:39:41;102084.80;;;13.50
65290;BMP180;51893;59.754;10.110;2022-09-09T04:42:09;102080.80;;;13.50
65290;BMP180;51893;59.754;10.110;2022-09-09T04:44:37;102076.40;;;13.50
65290;BMP180;51893;59.754;10.110;2022-09-09T04:47:04;102086.40;;;13.50
65290;BMP180;51893;59.754;10.110;2022-09-09T04:49:32;102089.80;;;13.50
65290;BMP180;51893;59.754;10.110;2022-09-09T04:52:01;102082.80;;;13.50
65290;BMP180;51893;59.754;10.110;2022-09-09T04:54:29;102082.20;;;13.44
65290;BMP180;51893;59.754;10.110;2022-09-09T04:56:57;102078.00;;;13.40
65290;BMP180;51893;59.754;10.110;2022-09-09T04:59:25;102083.40;;;13.40
65290;BMP180;51893;59.754;10.110;2022-09-09T05:01:52;102079.20;;;13.40
65290;BMP180;51893;59.754;10.110;2022-09-09T05:04:23;102086.40;;;13.40
65290;BMP180;51893;59.754;10.110;2022-09-09T05:06:50;102086.00;;;13.40
65290;BMP180;51893;59.754;10.110;2022-09-09T05:09:18;102081.40;;;13.40
65290;BMP180;51893;59.754;10.110;2022-09-09T05:11:46;102080.60;;;13.48
65290;BMP180;51893;59.754;10.110;2022-09-09T05:14:14;102085.80;;;13.40
65290;BMP180;51893;59.754;10.110;2022-09-09T05:16:44;102080.20;;;13.40
65290;BMP180;51893;59.754;10.110;2022-09-09T05:19:13;102077.00;;;13.32
65290;BMP180;51893;59.754;10.110;2022-09-09T05:21:40;102079.00;;;13.30
65290;BMP180;51893;59.754;10.110;2022-09-09T05:24:09;102078.80;;;13.30
65290;BMP180;51893;59.754;10.110;2022-09-09T05:26:37;102074.20;;;13.20
65290;BMP180;51893;59.754;10.110;2022-09-09T05:29:05;102075.00;;;13.20
65290;BMP180;51893;59.754;10.110;2022-09-09T05:31:33;102077.20;;;13.20
65290;BMP180;51893;59.754;10.110;2022-09-09T05:34:02;102071.60;;;13.20
65290;BMP180;51893;59.754;10.110;2022-09-09T05:36:30;102069.00;;;13.20
65290;BMP180;51893;59.754;10.110;2022-09-09T05:38:58;102069.80;;;13.20
65290;BMP180;51893;59.754;10.110;2022-09-09T05:41:26;102074.00;;;13.20
65290;BMP180;51893;59.754;10.110;2022-09-09T05:43:54;102076.00;;;13.20
65290;BMP180;51893;59.754;10.110;2022-09-09T05:46:24;102083.40;;;13.22
65290;BMP180;51893;59.754;10.110;2022-09-09T05:48:53;102082.40;;;13.20
65290;BMP180;51893;59.754;10.110;2022-09-09T05:51:28;102087.00;;;13.20
65290;BMP180;51893;59.754;10.110;2022-09-09T05:53:58;102086.60;;;13.24
65290;BMP180;51893;59.754;10.110;2022-09-09T05:56:28;102088.00;;;13.30
65290;BMP180;51893;59.754;10.110;2022-09-09T05:58:56;102088.60;;;13.30
65290;BMP180;51893;59.754;10.110;2022-09-09T06:01:29;102087.40;;;13.30
65290;BMP180;51893;59.754;10.110;2022-09-09T06:03:58;102083.80;;;13.36
65290;BMP180;51893;59.754;10.110;2022-09-09T06:06:31;102087.40;;;13.34
65290;BMP180;51893;59.754;10.110;2022-09-09T06:09:07;102085.60;;;13.40
65290;BMP180;51893;59.754;10.110;2022-09-09T06:11:39;102082.00;;;13.40
65290;BMP180;51893;59.754;10.110;2022-09-09T06:14:08;102082.60;;;13.40
65290;BMP180;51893;59.754;10.110;2022-09-09T06:16:36;102082.40;;;13.40
65290;BMP180;51893;59.754;10.110;2022-09-09T06:19:11;102078.20;;;13.40
65290;BMP180;51893;59.754;10.110;2022-09-09T06:21:40;102076.40;;;13.40
65290;BMP180;51893;59.754;10.110;2022-09-09T06:24:09;102069.20;;;13.40
65290;BMP180;51893;59.754;10.110;2022-09-09T06:26:38;102068.80;;;13.40
65290;BMP180;51893;59.754;10.110;2022-09-09T06:29:09;102071.40;;;13.46
65290;BMP180;51893;59.754;10.110;2022-09-09T06:31:38;102065.80;;;13.42
65290;BMP180;51893;59.754;10.110;2022-09-09T06:34:08;102068.40;;;13.48
65290;BMP180;51893;59.754;10.110;2022-09-09T06:36:38;102068.80;;;13.48
65290;BMP180;51893;59.754;10.110;2022-09-09T06:39:07;102068.60;;;13.50
65290;BMP180;51893;59.754;10.110;2022-09-09T06:41:42;102068.20;;;13.50
65290;BMP180;51893;59.754;10.110;2022-09-09T06:44:10;102066.80;;;13.50
65290;BMP180;51893;59.754;10.110;2022-09-09T06:46:39;102068.60;;;13.50
65290;BMP180;51893;59.754;10.110;2022-09-09T06:49:09;102071.40;;;13.50
65290;BMP180;51893;59.754;10.110;2022-09-09T06:51:38;102077.60;;;13.50
65290;BMP180;51893;59.754;10.110;2022-09-09T06:54:11;102079.60;;;13.56
65290;BMP180;51893;59.754;10.110;2022-09-09T06:56:41;102078.40;;;13.60
65290;BMP180;51893;59.754;10.110;2022-09-09T06:59:11;102083.20;;;13.60
65290;BMP180;51893;59.754;10.110;2022-09-09T07:01:42;102080.80;;;13.70
65290;BMP180;51893;59.754;10.110;2022-09-09T07:04:22;102082.60;;;13.70
65290;BMP180;51893;59.754;10.110;2022-09-09T07:06:50;102076.80;;;13.76
65290;BMP180;51893;59.754;10.110;2022-09-09T07:09:20;102069.40;;;13.80
65290;BMP180;51893;59.754;10.110;2022-09-09T07:11:50;102082.60;;;13.76
65290;BMP180;51893;59.754;10.110;2022-09-09T07:14:21;102081.60;;;13.80
65290;BMP180;51893;59.754;10.110;2022-09-09T07:16:50;102082.40;;;13.80
65290;BMP180;51893;59.754;10.110;2022-09-09T07:19:18;102086.20;;;13.80
65290;BMP180;51893;59.754;10.110;2022-09-09T07:21:46;102088.60;;;13.80
65290;BMP180;51893;59.754;10.110;2022-09-09T07:24:14;102094.80;;;13.80
65290;BMP180;51893;59.754;10.110;2022-09-09T07:26:41;102095.40;;;13.80
65290;BMP180;51893;59.754;10.110;2022-09-09T07:29:10;102095.20;;;13.80
65290;BMP180;51893;59.754;10.110;2022-09-09T07:31:47;102093.20;;;13.80
65290;BMP180;51893;59.754;10.110;2022-09-09T07:34:16;102089.60;;;13.84
65290;BMP180;51893;59.754;10.110;2022-09-09T07:36:44;102090.60;;;13.90
65290;BMP180;51893;59.754;10.110;2022-09-09T07:39:13;102096.00;;;13.90
65290;BMP180;51893;59.754;10.110;2022-09-09T07:41:45;102095.40;;;13.94
65290;BMP180;51893;59.754;10.110;2022-09-09T07:44:17;102092.80;;;14.00
65290;BMP180;51893;59.754;10.110;2022-09-09T07:46:46;102093.80;;;14.00
65290;BMP180;51893;59.754;10.110;2022-09-09T07:49:15;102088.20;;;14.08
65290;BMP180;51893;59.754;10.110;2022-09-09T07:51:52;102084.80;;;14.10
65290;BMP180;51893;59.754;10.110;2022-09-09T07:54:21;102088.60;;;14.12
65290;BMP180;51893;59.754;10.110;2022-09-09T07:56:51;102092.20;;;14.20
65290;BMP180;51893;59.754;10.110;2022-09-09T07:59:19;102087.40;;;14.20
65290;BMP180;51893;59.754;10.110;2022-09-09T08:01:50;102089.80;;;14.20
65290;BMP180;51893;59.754;10.110;2022-09-09T08:04:24;102087.40;;;14.30
65290;BMP180;51893;59.754;10.110;2022-09-09T08:06:58;102090.00;;;14.30
65290;BMP180;51893;59.754;10.110;2022-09-09T08:09:27;102101.00;;;14.30
65290;BMP180;51893;59.754;10.110;2022-09-09T08:12:00;102103.40;;;14.30
65290;BMP180;51893;59.754;10.110;2022-09-09T08:14:28;102102.80;;;14.30
65290;BMP180;51893;59.754;10.110;2022-09-09T08:16:57;102096.80;;;14.40
65290;BMP180;51893;59.754;10.110;2022-09-09T08:19:25;102100.20;;;14.40
65290;BMP180;51893;59.754;10.110;2022-09-09T08:21:56;102105.00;;;14.40
65290;BMP180;51893;59.754;10.110;2022-09-09T08:24:24;102109.80;;;14.40
65290;BMP180;51893;59.754;10.110;2022-09-09T08:26:52;102108.80;;;14.50
65290;BMP180;51893;59.754;10.110;2022-09-09T08:29:21;102114.80;;;14.50
65290;BMP180;51893;59.754;10.110;2022-09-09T08:31:57;102116.00;;;14.50
65290;BMP180;51893;59.754;10.110;2022-09-09T08:34:26;102119.00;;;14.54
65290;BMP180;51893;59.754;10.110;2022-09-09T08:36:56;102116.80;;;14.60
65290;BMP180;51893;59.754;10.110;2022-09-09T08:39:26;102119.20;;;14.60
65290;BMP180;51893;59.754;10.110;2022-09-09T08:50:38;102117.40;;;14.70
65290;BMP180;51893;59.754;10.110;2022-09-09T08:55:56;102120.20;;;14.70
65290;BMP180;51893;59.754;10.110;2022-09-09T08:58:33;102117.60;;;14.60
65290;BMP180;51893;59.754;10.110;2022-09-09T09:06:55;102117.00;;;14.70
65290;BMP180;51893;59.754;10.110;2022-09-09T09:11:57;102122.40;;;14.80
65290;BMP180;51893;59.754;10.110;2022-09-09T09:14:34;102113.40;;;14.90
65290;BMP180;51893;59.754;10.110;2022-09-09T09:17:13;102114.00;;;14.90
65290;BMP180;51893;59.754;10.110;2022-09-09T09:19:43;102117.80;;;14.90
65290;BMP180;51893;59.754;10.110;2022-09-09T09:22:37;102108.20;;;14.90
65290;BMP180;51893;59.754;10.110;2022-09-09T09:25:23;102108.60;;;14.90
65290;BMP180;51893;59.754;10.110;2022-09-09T09:27:59;102102.00;;;14.90
65290;BMP180;51893;59.754;10.110;2022-09-09T09:30:34;102105.60;;;14.80
65290;BMP180;51893;59.754;10.110;2022-09-09T09:33:45;102111.20;;;14.80
65290;BMP180;51893;59.754;10.110;2022-09-09T09:36:15;102108.80;;;14.70
65290;BMP180;51893;59.754;10.110;2022-09-09T09:38:59;102109.60;;;14.70
65290;BMP180;51893;59.754;10.110;2022-09-09T09:41:47;102113.40;;;14.66
65290;BMP180;51893;59.754;10.110;2022-09-09T09:44:27;102114.60;;;14.70
65290;BMP180;51893;59.754;10.110;2022-09-09T09:47:20;102116.00;;;14.70
65290;BMP180;51893;59.754;10.110;2022-09-09T09:49:59;102117.40;;;14.80
65290;BMP180;51893;59.754;10.110;2022-09-09T09:52:32;102116.00;;;14.84
65290;BMP180;51893;59.754;10.110;2022-09-09T09:55:04;102118.60;;;14.96
65290;BMP180;51893;59.754;10.110;2022-09-09T09:57:40;102117.00;;;15.00
65290;BMP180;51893;59.754;10.110;2022-09-09T10:00:16;102113.60;;;15.02
65290;BMP180;51893;59.754;10.110;2022-09-09T10:02:46;102111.60;;;15.10
65290;BMP180;51893;59.754;10.110;2022-09-09T10:05:29;102115.80;;;15.10
65290;BMP180;51893;59.754;10.110;2022-09-09T10:08:10;102109.80;;;15.20
65290;BMP180;51893;59.754;10.110;2022-09-09T10:11:18;102115.40;;;15.28
65290;BMP180;51893;59.754;10.110;2022-09-09T10:14:24;102116.60;;;15.30
65290;BMP180;51893;59.754;10.110;2022-09-09T10:22:33;102113.40;;;15.30
65290;BMP180;51893;59.754;10.110;2022-09-09T10:25:21;102110.60;;;15.30
65290;BMP180;51893;59.754;10.110;2022-09-09T10:40:31;102098.00;;;15.50
65290;BMP180;51893;59.754;10.110;2022-09-09T10:51:49;102102.60;;;15.70
65290;BMP180;51893;59.754;10.110;2022-09-09T10:57:15;102096.20;;;15.80
65290;BMP180;51893;59.754;10.110;2022-09-09T10:59:48;102108.20;;;15.90
65290;BMP180;51893;59.754;10.110;2022-09-09T11:02:29;102104.80;;;15.92
65290;BMP180;51893;59.754;10.110;2022-09-09T11:05:05;102109.60;;;16.00
65290;BMP180;51893;59.754;10.110;2022-09-09T11:07:53;102105.80;;;16.20
65290;BMP180;51893;59.754;10.110;2022-09-09T11:10:44;102100.00;;;16.40
65290;BMP180;51893;59.754;10.110;2022-09-09T11:13:24;102100.60;;;16.50
65290;BMP180;51893;59.754;10.110;2022-09-09T11:16:15;102105.40;;;16.50
65290;BMP180;51893;59.754;10.110;2022-09-09T11:18:46;102105.20;;;16.50
65290;BMP180;51893;59.754;10.110;2022-09-09T11:21:32;102109.20;;;16.50
65290;BMP180;51893;59.754;10.110;2022-09-09T11:24:11;102099.00;;;16.60
65290;BMP180;51893;59.754;10.110;2022-09-09T11:26:50;102100.60;;;16.74
65290;BMP180;51893;59.754;10.110;2022-09-09T11:30:02;102101.00;;;17.00
65290;BMP180;51893;59.754;10.110;2022-09-09T11:38:45;102104.40;;;17.00
65290;BMP180;51893;59.754;10.110;2022-09-09T11:41:15;102104.40;;;16.92
65290;BMP180;51893;59.754;10.110;2022-09-09T11:43:52;102105.00;;;16.84
65290;BMP180;51893;59.754;10.110;2022-09-09T11:46:32;102107.20;;;16.70
65290;BMP180;51893;59.754;10.110;2022-09-09T11:49:06;102103.60;;;16.70
65290;BMP180;51893;59.754;10.110;2022-09-09T11:51:34;102103.60;;;16.70
65290;BMP180;51893;59.754;10.110;2022-09-09T11:54:32;102095.60;;;16.70
65290;BMP180;51893;59.754;10.110;2022-09-09T11:57:02;102107.00;;;16.70
65290;BMP180;51893;59.754;10.110;2022-09-09T11:59:33;102105.20;;;16.70
65290;BMP180;51893;59.754;10.110;2022-09-09T12:02:13;102110.40;;;16.70
65290;BMP180;51893;59.754;10.110;2022-09-09T12:05:12;102106.00;;;16.60
65290;BMP180;51893;59.754;10.110;2022-09-09T12:07:56;102098.40;;;16.50
65290;BMP180;51893;59.754;10.110;2022-09-09T12:10:37;102100.80;;;16.40
65290;BMP180;51893;59.754;10.110;2022-09-09T12:13:18;102097.40;;;16.40
65290;BMP180;51893;59.754;10.110;2022-09-09T12:15:56;102096.20;;;16.40
65290;BMP180;51893;59.754;10.110;2022-09-09T12:18:31;102094.20;;;16.40
65290;BMP180;51893;59.754;10.110;2022-09-09T12:21:15;102091.80;;;16.40
65290;BMP180;51893;59.754;10.110;2022-09-09T12:24:27;102090.60;;;16.50
65290;BMP180;51893;59.754;10.110;2022-09-09T12:30:02;102083.20;;;16.60
65290;BMP180;51893;59.754;10.110;2022-09-09T12:32:31;102082.60;;;16.60
65290;BMP180;51893;59.754;10.110;2022-09-09T12:35:11;102081.00;;;16.60
65290;BMP180;51893;59.754;10.110;2022-09-09T12:37:58;102076.40;;;16.60
65290;BMP180;51893;59.754;10.110;2022-09-09T12:40:32;102078.60;;;16.60
65290;BMP180;51893;59.754;10.110;2022-09-09T12:43:19;102076.80;;;16.70
65290;BMP180;51893;59.754;10.110;2022-09-09T12:45:52;102072.00;;;16.80
65290;BMP180;51893;59.754;10.110;2022-09-09T12:48:37;102069.20;;;16.80
65290;BMP180;51893;59.754;10.110;2022-09-09T12:51:28;102061.00;;;16.90
65290;BMP180;51893;59.754;10.110;2022-09-09T12:53:59;102061.40;;;16.98
65290;BMP180;51893;59.754;10.110;2022-09-09T12:56:31;102057.60;;;17.00
65290;BMP180;51893;59.754;10.110;2022-09-09T12:58:59;102052.60;;;17.20
65290;BMP180;51893;59.754;10.110;2022-09-09T13:01:32;102052.60;;;17.40
65290;BMP180;51893;59.754;10.110;2022-09-09T13:04:01;102049.00;;;17.42
65290;BMP180;51893;59.754;10.110;2022-09-09T13:06:31;102050.00;;;17.56
65290;BMP180;51893;59.754;10.110;2022-09-09T13:09:03;102048.20;;;17.60
65290;BMP180;51893;59.754;10.110;2022-09-09T13:11:40;102050.60;;;17.60
65290;BMP180;51893;59.754;10.110;2022-09-09T13:14:29;102057.20;;;17.50
65290;BMP180;51893;59.754;10.110;2022-09-09T13:17:04;102057.80;;;17.42
65290;BMP180;51893;59.754;10.110;2022-09-09T13:19:37;102061.40;;;17.40
65290;BMP180;51893;59.754;10.110;2022-09-09T13:22:36;102050.00;;;17.30
65290;BMP180;51893;59.754;10.110;2022-09-09T13:27:41;102050.00;;;17.20
65290;BMP180;51893;59.754;10.110;2022-09-09T13:30:36;102045.20;;;17.26
65290;BMP180;51893;59.754;10.110;2022-09-09T13:35:58;102046.60;;;17.40
65290;BMP180;51893;59.754;10.110;2022-09-09T13:38:29;102047.60;;;17.40
65290;BMP180;51893;59.754;10.110;2022-09-09T13:41:06;102041.60;;;17.40
65290;BMP180;51893;59.754;10.110;2022-09-09T13:43:47;102041.60;;;17.50
65290;BMP180;51893;59.754;10.110;2022-09-09T13:46:34;102040.60;;;17.50
65290;BMP180;51893;59.754;10.110;2022-09-09T13:49:21;102041.20;;;17.50
65290;BMP180;51893;59.754;10.110;2022-09-09T13:51:51;102040.60;;;17.50
65290;BMP180;51893;59.754;10.110;2022-09-09T13:54:21;102036.60;;;17.50
65290;BMP180;51893;59.754;10.110;2022-09-09T13:56:50;102033.00;;;17.52
65290;BMP180;51893;59.754;10.110;2022-09-09T13:59:19;102035.60;;;17.50
65290;BMP180;51893;59.754;10.110;2022-09-09T14:01:47;102031.00;;;17.40
65290;BMP180;51893;59.754;10.110;2022-09-09T14:04:17;102031.80;;;17.34
65290;BMP180;51893;59.754;10.110;2022-09-09T14:06:44;102032.40;;;17.40
65290;BMP180;51893;59.754;10.110;2022-09-09T14:09:16;102031.80;;;17.40
65290;BMP180;51893;59.754;10.110;2022-09-09T14:11:44;102026.80;;;17.40
65290;BMP180;51893;59.754;10.110;2022-09-09T14:14:15;102029.00;;;17.40
65290;BMP180;51893;59.754;10.110;2022-09-09T14:16:43;102032.00;;;17.40
65290;BMP180;51893;59.754;10.110;2022-09-09T14:19:12;102030.60;;;17.40
65290;BMP180;51893;59.754;10.110;2022-09-09T14:21:42;102020.00;;;17.40
65290;BMP180;51893;59.754;10.110;2022-09-09T14:24:10;102027.20;;;17.40
65290;BMP180;51893;59.754;10.110;2022-09-09T14:26:38;102021.20;;;17.34
65290;BMP180;51893;59.754;10.110;2022-09-09T14:29:05;102023.00;;;17.38
65290;BMP180;51893;59.754;10.110;2022-09-09T14:31:33;102016.40;;;17.40
65290;BMP180;51893;59.754;10.110;2022-09-09T14:34:01;102016.40;;;17.40
65290;BMP180;51893;59.754;10.110;2022-09-09T14:36:29;102016.80;;;17.50
65290;BMP180;51893;59.754;10.110;2022-09-09T14:38:59;102014.80;;;17.50
65290;BMP180;51893;59.754;10.110;2022-09-09T14:41:26;102017.00;;;17.40
65290;BMP180;51893;59.754;10.110;2022-09-09T14:43:54;102013.80;;;17.40
65290;BMP180;51893;59.754;10.110;2022-09-09T14:46:23;102015.40;;;17.40
65290;BMP180;51893;59.754;10.110;2022-09-09T14:48:50;102015.20;;;17.40
65290;BMP180;51893;59.754;10.110;2022-09-09T14:51:26;102014.40;;;17.40
65290;BMP180;51893;59.754;10.110;2022-09-09T14:54:00;102012.80;;;17.40
65290;BMP180;51893;59.754;10.110;2022-09-09T14:56:33;102012.80;;;17.30
65290;BMP180;51893;59.754;10.110;2022-09-09T14:59:04;102013.40;;;17.28
65290;BMP180;51893;59.754;10.110;2022-09-09T15:01:32;102006.20;;;17.20
65290;BMP180;51893;59.754;10.110;2022-09-09T15:04:04;102006.40;;;17.20
65290;BMP180;51893;59.754;10.110;2022-09-09T15:06:35;102008.60;;;17.20
65290;BMP180;51893;59.754;10.110;2022-09-09T15:09:06;102007.40;;;17.20
65290;BMP180;51893;59.754;10.110;2022-09-09T15:11:36;102002.60;;;17.10
65290;BMP180;51893;59.754;10.110;2022-09-09T15:14:08;102002.20;;;17.10
65290;BMP180;51893;59.754;10.110;2022-09-09T15:16:38;101999.40;;;17.10
65290;BMP180;51893;59.754;10.110;2022-09-09T15:19:06;101999.40;;;17.00
65290;BMP180;51893;59.754;10.110;2022-09-09T15:21:36;101999.60;;;17.00
65290;BMP180;51893;59.754;10.110;2022-09-09T15:24:06;101998.40;;;17.00
65290;BMP180;51893;59.754;10.110;2022-09-09T15:26:37;101998.00;;;16.90
65290;BMP180;51893;59.754;10.110;2022-09-09T15:29:06;101995.00;;;16.90
65290;BMP180;51893;59.754;10.110;2022-09-09T15:31:36;101992.60;;;16.90
65290;BMP180;51893;59.754;10.110;2022-09-09T15:34:07;101994.20;;;16.90
65290;BMP180;51893;59.754;10.110;2022-09-09T15:36:38;101993.40;;;16.84
65290;BMP180;51893;59.754;10.110;2022-09-09T15:39:09;101990.20;;;16.82
65290;BMP180;51893;59.754;10.110;2022-09-09T15:41:40;101986.40;;;16.86
65290;BMP180;51893;59.754;10.110;2022-09-09T15:44:09;101985.60;;;16.80
65290;BMP180;51893;59.754;10.110;2022-09-09T15:46:45;101984.00;;;16.80
65290;BMP180;51893;59.754;10.110;2022-09-09T15:49:22;101984.80;;;16.76
65290;BMP180;51893;59.754;10.110;2022-09-09T15:51:58;101988.00;;;16.72
65290;BMP180;51893;59.754;10.110;2022-09-09T15:54:34;101982.80;;;16.70
65290;BMP180;51893;59.754;10.110;2022-09-09T15:57:05;101989.80;;;16.70
65290;BMP180;51893;59.754;10.110;2022-09-09T15:59:34;101986.60;;;16.70
65290;BMP180;51893;59.754;10.110;2022-09-09T16:02:03;101986.80;;;16.70
65290;BMP180;51893;59.754;10.110;2022-09-09T16:04:33;101988.00;;;16.70
65290;BMP180;51893;59.754;10.110;2022-09-09T16:07:04;101988.20;;;16.70
65290;BMP180;51893;59.754;10.110;2022-09-09T16:09:35;101988.00;;;16.70
65290;BMP180;51893;59.754;10.110;2022-09-09T16:12:05;101985.40;;;16.70
65290;BMP180;51893;59.754;10.110;2022-09-09T16:14:39;101985.80;;;16.70